createdAt,value
2022-11-23T00:00:07.598Z,100.00
2022-11-23T00:02:34.490Z,100.00
2022-11-23T00:05:01.403Z,100.00
2022-11-23T00:07:28.458Z,100.00
2022-11-23T00:09:55.250Z,100.00
2022-11-23T00:12:22.187Z,100.00
2022-11-23T00:14:49.142Z,100.00
2022-11-23T00:17:15.954Z,100.00
2022-11-23T00:19:42.876Z,100.00
2022-11-23T00:22:09.647Z,100.00
2022-11-23T00:24:36.470Z,100.00
2022-11-23T00:27:03.442Z,100.00
2022-11-23T00:32:10.890Z,100.00
2022-11-23T00:34:37.784Z,100.00
2022-11-23T00:37:04.603Z,100.00
2022-11-23T00:39:31.768Z,100.00
2022-11-23T00:41:58.711Z,100.00
2022-11-23T00:44:25.512Z,100.00
2022-11-23T00:46:52.353Z,100.00
2022-11-23T00:49:19.131Z,100.00
2022-11-23T00:51:45.999Z,100.00
2022-11-23T00:54:13.603Z,100.00
2022-11-23T00:56:40.359Z,100.00
2022-11-23T00:59:07.325Z,100.00
2022-11-23T01:01:35.033Z,100.00
2022-11-23T01:04:02.203Z,100.00
2022-11-23T01:06:33.499Z,100.00
2022-11-23T01:09:02.440Z,100.00
2022-11-23T01:11:30.009Z,100.00
2022-11-23T01:13:56.897Z,100.00
2022-11-23T01:16:34.395Z,100.00
2022-11-23T01:19:02.156Z,100.00
2022-11-23T01:21:29.423Z,100.00
2022-11-23T01:23:57.984Z,100.00
2022-11-23T01:26:25.068Z,100.00
2022-11-23T01:28:51.915Z,100.00
2022-11-23T01:31:22.511Z,100.00
2022-11-23T01:33:53.173Z,100.00
2022-11-23T01:36:20.831Z,100.00
2022-11-23T01:38:47.964Z,100.00
2022-11-23T01:41:19.115Z,100.00
2022-11-23T01:43:46.640Z,100.00
2022-11-23T01:46:13.475Z,100.00
2022-11-23T01:48:40.475Z,100.00
2022-11-23T01:51:09.472Z,100.00
2022-11-23T01:53:36.340Z,100.00
2022-11-23T01:56:04.342Z,100.00
2022-11-23T01:58:32.609Z,100.00
2022-11-23T02:00:59.448Z,100.00
2022-11-23T02:03:27.363Z,100.00
2022-11-23T02:05:59.356Z,100.00
2022-11-23T02:08:26.310Z,100.00
2022-11-23T02:10:56.071Z,100.00
2022-11-23T02:13:32.842Z,100.00
2022-11-23T02:15:59.809Z,100.00
2022-11-23T02:18:27.400Z,100.00
2022-11-23T02:20:54.447Z,100.00
2022-11-23T02:23:30.603Z,100.00
2022-11-23T02:26:02.333Z,100.00
2022-11-23T02:28:32.109Z,100.00
2022-11-23T02:30:59.323Z,100.00
2022-11-23T02:33:26.363Z,100.00
2022-11-23T02:35:54.199Z,100.00
2022-11-23T02:38:22.997Z,100.00
2022-11-23T02:40:49.866Z,100.00
2022-11-23T02:43:16.761Z,100.00
2022-11-23T02:45:51.559Z,100.00
2022-11-23T02:48:19.173Z,100.00
2022-11-23T02:50:46.078Z,100.00
2022-11-23T02:53:13.003Z,100.00
2022-11-23T02:55:39.790Z,100.00
2022-11-23T02:58:07.472Z,100.00
2022-11-23T03:00:34.628Z,100.00
2022-11-23T03:03:03.486Z,100.00
2022-11-23T03:05:30.597Z,100.00
2022-11-23T03:07:57.468Z,100.00
2022-11-23T03:10:24.510Z,100.00
2022-11-23T03:12:54.027Z,100.00
2022-11-23T03:15:21.402Z,100.00
2022-11-23T03:17:48.433Z,100.00
2022-11-23T03:20:16.620Z,100.00
2022-11-23T03:22:46.675Z,100.00
2022-11-23T03:25:15.295Z,100.00
2022-11-23T03:27:48.235Z,100.00
2022-11-23T03:30:15.617Z,100.00
2022-11-23T03:32:43.376Z,100.00
2022-11-23T03:35:10.129Z,100.00
2022-11-23T03:37:48.702Z,100.00
2022-11-23T03:40:15.736Z,100.00
2022-11-23T03:43:07.898Z,100.00
2022-11-23T03:45:34.834Z,100.00
2022-11-23T03:48:01.921Z,100.00
2022-11-23T03:50:30.919Z,100.00
2022-11-23T03:52:58.104Z,100.00
2022-11-23T03:55:24.987Z,100.00
2022-11-23T03:57:54.553Z,100.00
2022-11-23T04:00:21.719Z,100.00
2022-11-23T04:02:48.979Z,100.00
2022-11-23T04:05:48.449Z,100.00
2022-11-23T04:08:35.221Z,100.00
2022-11-23T04:11:07.087Z,100.00
2022-11-23T04:13:38.748Z,100.00
2022-11-23T04:16:07.401Z,100.00
2022-11-23T04:18:36.833Z,100.00
2022-11-23T04:21:04.580Z,100.00
2022-11-23T04:23:31.479Z,100.00
2022-11-23T04:25:58.741Z,100.00
2022-11-23T04:28:25.529Z,100.00
2022-11-23T04:30:53.509Z,100.00
2022-11-23T04:33:20.435Z,100.00
2022-11-23T04:35:47.330Z,100.00
2022-11-23T04:38:14.930Z,100.00
2022-11-23T04:40:42.608Z,100.00
2022-11-23T04:43:09.739Z,100.00
2022-11-23T04:45:39.727Z,100.00
2022-11-23T04:48:11.592Z,100.00
2022-11-23T04:50:40.526Z,100.00
2022-11-23T04:53:09.230Z,100.00
2022-11-23T04:58:34.721Z,100.00
2022-11-23T05:01:02.709Z,100.00
2022-11-23T05:03:31.635Z,100.00
2022-11-23T05:06:25.975Z,100.00
2022-11-23T05:08:54.147Z,100.00
2022-11-23T05:11:41.636Z,100.00
2022-11-23T05:14:10.542Z,100.00
2022-11-23T05:16:38.874Z,100.00
2022-11-23T05:19:05.843Z,100.00
2022-11-23T05:21:33.312Z,100.00
2022-11-23T05:24:00.473Z,100.00
2022-11-23T05:26:29.291Z,100.00
2022-11-23T05:28:56.223Z,100.00
2022-11-23T05:31:23.046Z,100.00
2022-11-23T05:33:51.511Z,100.00
2022-11-23T05:36:27.487Z,100.00
2022-11-23T05:38:54.812Z,100.00
2022-11-23T05:41:28.702Z,100.00
2022-11-23T05:43:59.426Z,100.00
2022-11-23T05:46:28.489Z,100.00
2022-11-23T05:48:55.578Z,100.00
2022-11-23T05:51:23.815Z,100.00
2022-11-23T05:53:50.899Z,100.00
2022-11-23T05:56:24.567Z,100.00
2022-11-23T05:59:15.681Z,100.00
2022-11-23T06:01:46.837Z,100.00
2022-11-23T06:04:22.068Z,100.00
2022-11-23T06:06:49.083Z,100.00
2022-11-23T06:09:19.059Z,100.00
2022-11-23T06:11:52.819Z,100.00
2022-11-23T06:14:20.864Z,100.00
2022-11-23T06:16:52.211Z,100.00
2022-11-23T06:19:39.565Z,100.00
2022-11-23T06:22:07.342Z,100.00
2022-11-23T06:24:44.175Z,100.00
2022-11-23T06:27:38.840Z,100.00
2022-11-23T06:30:14.980Z,100.00
2022-11-23T06:32:42.365Z,100.00
2022-11-23T06:35:10.272Z,100.00
2022-11-23T06:37:40.757Z,100.00
2022-11-23T06:40:08.186Z,100.00
2022-11-23T06:42:39.862Z,100.00
2022-11-23T06:45:14.167Z,100.00
2022-11-23T06:47:41.563Z,100.00
2022-11-23T06:50:09.697Z,100.00
2022-11-23T06:52:37.942Z,100.00
2022-11-23T06:55:05.585Z,100.00
2022-11-23T06:57:32.606Z,100.00
2022-11-23T07:00:02.737Z,100.00
2022-11-23T07:02:34.743Z,100.00
2022-11-23T07:05:02.107Z,100.00
2022-11-23T07:07:31.505Z,100.00
2022-11-23T07:10:07.660Z,100.00
2022-11-23T07:12:46.942Z,100.00
2022-11-23T07:15:16.761Z,100.00
2022-11-23T07:17:45.316Z,100.00
2022-11-23T07:20:13.054Z,100.00
2022-11-23T07:22:40.251Z,100.00
2022-11-23T07:25:12.997Z,100.00
2022-11-23T07:27:43.569Z,100.00
2022-11-23T07:30:14.856Z,100.00
2022-11-23T07:32:45.615Z,100.00
2022-11-23T07:35:13.437Z,100.00
2022-11-23T07:37:43.616Z,100.00
2022-11-23T07:40:10.816Z,100.00
2022-11-23T07:42:44.940Z,100.00
2022-11-23T07:45:15.238Z,100.00
2022-11-23T07:47:45.503Z,100.00
2022-11-23T07:50:13.530Z,100.00
2022-11-23T07:52:41.440Z,100.00
2022-11-23T07:55:08.631Z,100.00
2022-11-23T07:57:35.671Z,100.00
2022-11-23T08:00:10.277Z,100.00
2022-11-23T08:02:52.787Z,100.00
2022-11-23T08:05:26.609Z,100.00
2022-11-23T08:07:58.540Z,100.00
2022-11-23T08:10:26.806Z,100.00
2022-11-23T08:12:56.550Z,100.00
2022-11-23T08:15:24.198Z,100.00
2022-11-23T08:17:55.100Z,100.00
2022-11-23T08:20:22.134Z,100.00
2022-11-23T08:22:49.306Z,100.00
2022-11-23T08:25:16.852Z,100.00
2022-11-23T08:27:43.971Z,100.00
2022-11-23T08:30:10.918Z,100.00
2022-11-23T08:32:37.687Z,100.00
2022-11-23T08:35:05.069Z,100.00
2022-11-23T08:37:31.897Z,100.00
2022-11-23T08:39:58.664Z,100.00
2022-11-23T08:42:25.650Z,100.00
2022-11-23T08:44:52.583Z,100.00
2022-11-23T08:47:22.091Z,100.00
2022-11-23T08:49:49.785Z,100.00
2022-11-23T08:52:16.962Z,100.00
2022-11-23T08:54:43.876Z,100.00
2022-11-23T08:57:10.959Z,100.00
2022-11-23T08:59:37.834Z,100.00
2022-11-23T09:02:05.163Z,100.00
2022-11-23T09:04:32.462Z,100.00
2022-11-23T09:06:59.443Z,100.00
2022-11-23T09:09:26.543Z,100.00
2022-11-23T09:11:54.112Z,100.00
2022-11-23T09:14:22.168Z,100.00
2022-11-23T09:16:49.416Z,100.00
2022-11-23T09:19:16.410Z,100.00
2022-11-23T09:21:43.407Z,100.00
2022-11-23T09:24:11.721Z,100.00
2022-11-23T09:26:39.219Z,100.00
2022-11-23T09:29:06.553Z,100.00
2022-11-23T09:31:33.533Z,100.00
2022-11-23T09:34:00.527Z,100.00
2022-11-23T09:36:27.356Z,100.00
2022-11-23T09:38:57.022Z,100.00
2022-11-23T09:41:43.264Z,100.00
2022-11-23T09:44:29.173Z,100.00
2022-11-23T09:47:05.295Z,100.00
2022-11-23T09:49:44.263Z,100.00
2022-11-23T09:52:18.536Z,100.00
2022-11-23T09:54:45.759Z,100.00
2022-11-23T09:57:13.204Z,100.00
2022-11-23T09:59:41.350Z,100.00
2022-11-23T10:04:59.353Z,100.00
2022-11-23T10:07:26.332Z,100.00
2022-11-23T10:09:53.140Z,100.00
2022-11-23T10:12:37.225Z,100.00
2022-11-23T10:15:18.744Z,100.00
2022-11-23T10:17:57.817Z,100.00
2022-11-23T10:20:35.892Z,100.00
2022-11-23T10:23:03.953Z,100.00
2022-11-23T10:25:39.505Z,100.00
2022-11-23T10:28:12.303Z,100.00
2022-11-23T10:30:39.493Z,100.00
2022-11-23T10:33:18.514Z,100.00
2022-11-23T10:35:45.384Z,100.00
2022-11-23T10:38:18.372Z,100.00
2022-11-23T10:40:54.814Z,100.00
2022-11-23T10:43:23.188Z,100.00
2022-11-23T10:45:49.934Z,100.00
2022-11-23T10:48:35.621Z,100.00
2022-11-23T10:51:16.036Z,100.00
2022-11-23T10:53:42.927Z,100.00
2022-11-23T10:56:12.212Z,100.00
2022-11-23T10:58:44.921Z,100.00
2022-11-23T11:01:14.803Z,100.00
2022-11-23T11:03:41.848Z,100.00
2022-11-23T11:06:10.273Z,100.00
2022-11-23T11:08:49.016Z,100.00
2022-11-23T11:11:23.843Z,100.00
2022-11-23T11:13:50.879Z,100.00
2022-11-23T11:16:33.952Z,100.00
2022-11-23T11:19:01.894Z,100.00
2022-11-23T11:21:31.741Z,100.00
2022-11-23T11:24:02.856Z,100.00
2022-11-23T11:26:36.555Z,100.00
2022-11-23T11:29:06.812Z,100.00
2022-11-23T11:32:11.841Z,100.00
2022-11-23T11:34:57.025Z,100.00
2022-11-23T11:37:37.122Z,100.00
2022-11-23T11:40:19.229Z,100.00
2022-11-23T11:42:51.582Z,100.00
2022-11-23T11:45:28.585Z,100.00
2022-11-23T11:48:03.493Z,100.00
2022-11-23T11:50:32.041Z,100.00
2022-11-23T11:53:10.639Z,100.00
2022-11-23T11:55:40.426Z,100.00
2022-11-23T11:58:10.912Z,100.00
2022-11-23T12:00:42.212Z,100.00
2022-11-23T12:03:20.691Z,100.00
2022-11-23T12:05:49.164Z,100.00
2022-11-23T12:08:33.750Z,100.00
2022-11-23T12:11:02.272Z,100.00
2022-11-23T12:13:30.040Z,100.00
2022-11-23T12:16:15.480Z,100.00
2022-11-23T12:18:51.727Z,100.00
2022-11-23T12:21:37.629Z,100.00
2022-11-23T12:24:14.261Z,100.00
2022-11-23T12:26:46.733Z,100.00
2022-11-23T12:29:24.877Z,100.00
2022-11-23T12:31:54.493Z,100.00
2022-11-23T12:34:24.510Z,100.00
2022-11-23T12:36:56.306Z,100.00
2022-11-23T12:39:35.414Z,100.00
2022-11-23T12:42:05.785Z,100.00
2022-11-23T12:44:50.064Z,100.00
2022-11-23T12:47:35.981Z,100.00
2022-11-23T12:50:02.999Z,100.00
2022-11-23T12:52:48.674Z,100.00
2022-11-23T12:55:19.649Z,100.00
2022-11-23T12:57:50.629Z,100.00
2022-11-23T13:00:23.987Z,100.00
2022-11-23T13:02:50.781Z,100.00
2022-11-23T13:05:20.659Z,100.00
2022-11-23T13:07:53.685Z,100.00
2022-11-23T13:10:26.403Z,100.00
2022-11-23T13:12:56.509Z,100.00
2022-11-23T13:15:35.660Z,100.00
2022-11-23T13:18:21.157Z,100.00
2022-11-23T13:20:57.098Z,100.00
2022-11-23T13:23:23.994Z,100.00
2022-11-23T13:26:10.141Z,100.00
2022-11-23T13:28:37.502Z,100.00
2022-11-23T13:31:15.816Z,100.00
2022-11-23T13:33:56.555Z,100.00
2022-11-23T13:39:45.586Z,100.00
2022-11-23T13:42:16.837Z,100.00
2022-11-23T13:44:43.807Z,100.00
2022-11-23T13:47:15.397Z,100.00
2022-11-23T13:49:45.869Z,100.00
2022-11-23T13:52:24.219Z,100.00
2022-11-23T13:54:53.790Z,100.00
2022-11-23T13:57:20.665Z,100.00
2022-11-23T13:59:47.853Z,100.00
2022-11-23T14:02:17.906Z,100.00
2022-11-23T14:04:45.691Z,100.00
2022-11-23T14:07:12.640Z,100.00
2022-11-23T14:09:43.196Z,100.00
2022-11-23T14:12:18.929Z,100.00
2022-11-23T14:14:50.300Z,100.00
2022-11-23T14:17:39.837Z,100.00
2022-11-23T14:20:27.943Z,100.00
2022-11-23T14:23:16.420Z,100.00
2022-11-23T14:25:59.737Z,100.00
2022-11-23T14:28:45.340Z,100.00
2022-11-23T14:31:33.311Z,100.00
2022-11-23T14:34:19.071Z,100.00
2022-11-23T14:36:52.921Z,100.00
2022-11-23T14:39:26.103Z,100.00
2022-11-23T14:41:54.143Z,100.00
2022-11-23T14:44:23.851Z,100.00
2022-11-23T14:47:00.999Z,100.00
2022-11-23T14:49:28.507Z,100.00
2022-11-23T14:51:55.757Z,100.00
2022-11-23T14:54:22.647Z,100.00
2022-11-23T14:56:55.700Z,100.00
2022-11-23T14:59:36.727Z,100.00
2022-11-23T15:02:06.117Z,100.00
2022-11-23T15:04:36.446Z,100.00
2022-11-23T15:07:15.095Z,100.00
2022-11-23T15:09:48.641Z,100.00
2022-11-23T15:12:23.112Z,100.00
2022-11-23T15:14:51.423Z,100.00
2022-11-23T15:17:19.139Z,100.00
2022-11-23T15:19:58.892Z,100.00
2022-11-23T15:22:27.232Z,100.00
2022-11-23T15:24:54.094Z,100.00
2022-11-23T15:27:30.497Z,100.00
2022-11-23T15:30:22.981Z,100.00
2022-11-23T15:32:56.547Z,100.00
2022-11-23T15:35:23.811Z,100.00
2022-11-23T15:37:50.602Z,100.00
2022-11-23T15:40:18.833Z,100.00
2022-11-23T15:42:47.026Z,100.00
2022-11-23T15:45:52.915Z,100.00
2022-11-23T15:48:20.384Z,100.00
2022-11-23T15:50:49.770Z,100.00
2022-11-23T15:53:19.592Z,100.00
2022-11-23T15:55:47.615Z,100.00
2022-11-23T15:58:16.381Z,100.00
2022-11-23T16:00:47.551Z,100.00
2022-11-23T16:03:23.652Z,100.00
2022-11-23T16:06:09.047Z,100.00
2022-11-23T16:08:35.931Z,100.00
2022-11-23T16:11:02.932Z,100.00
2022-11-23T16:13:38.319Z,100.00
2022-11-23T16:16:16.767Z,100.00
2022-11-23T16:18:46.408Z,100.00
2022-11-23T16:21:17.378Z,100.00
2022-11-23T16:23:46.123Z,100.00
2022-11-23T16:26:13.213Z,100.00
2022-11-23T16:28:41.194Z,100.00
2022-11-23T16:31:29.917Z,100.00
2022-11-23T16:33:56.785Z,100.00
2022-11-23T16:36:26.985Z,100.00
2022-11-23T16:38:54.398Z,100.00
2022-11-23T16:41:21.196Z,100.00
2022-11-23T16:43:52.620Z,100.00
2022-11-23T16:46:19.858Z,100.00
2022-11-23T16:48:46.824Z,100.00
2022-11-23T16:51:14.770Z,100.00
2022-11-23T16:54:11.905Z,100.00
2022-11-23T16:56:29.718Z,100.00
2022-11-23T16:58:57.149Z,100.00
2022-11-23T17:01:25.430Z,100.00
2022-11-23T17:03:52.627Z,100.00
2022-11-23T17:06:23.791Z,100.00
2022-11-23T17:08:56.584Z,100.00
2022-11-23T17:11:28.511Z,100.00
2022-11-23T17:13:56.154Z,100.00
2022-11-23T17:16:24.317Z,100.00
2022-11-23T17:18:51.761Z,100.00
2022-11-23T17:21:18.621Z,100.00
2022-11-23T17:23:46.019Z,100.00
2022-11-23T17:26:34.579Z,100.00
2022-11-23T17:29:03.601Z,100.00
2022-11-23T17:31:30.774Z,100.00
2022-11-23T17:33:57.847Z,100.00
2022-11-23T17:36:26.609Z,100.00
2022-11-23T17:38:54.727Z,100.00
2022-11-23T17:41:29.685Z,100.00
2022-11-23T17:44:06.640Z,100.00
2022-11-23T17:46:34.170Z,100.00
2022-11-23T17:49:02.653Z,100.00
2022-11-23T17:51:30.678Z,100.00
2022-11-23T17:53:58.391Z,100.00
2022-11-23T17:56:28.439Z,100.00
2022-11-23T17:58:58.844Z,100.00
2022-11-23T18:01:33.382Z,100.00
2022-11-23T18:04:07.519Z,100.00
2022-11-23T18:06:37.401Z,100.00
2022-11-23T18:09:25.362Z,100.00
2022-11-23T18:11:52.708Z,100.00
2022-11-23T18:17:08.862Z,100.00
2022-11-23T18:19:40.023Z,99.88
2022-11-23T18:22:10.594Z,99.99
2022-11-23T18:24:37.935Z,100.00
2022-11-23T18:27:04.815Z,99.96
2022-11-23T18:29:32.276Z,100.00
2022-11-23T18:31:59.437Z,100.00
2022-11-23T18:34:26.587Z,100.00
2022-11-23T18:36:54.680Z,100.00
2022-11-23T18:39:21.699Z,99.78
2022-11-23T18:41:48.743Z,99.79
2022-11-23T18:44:15.640Z,100.00
2022-11-23T18:46:45.033Z,99.93
2022-11-23T18:49:12.417Z,100.00
2022-11-23T18:51:39.538Z,100.00
2022-11-23T18:54:06.592Z,100.00
2022-11-23T18:56:33.515Z,100.00
2022-11-23T18:59:00.577Z,100.00
2022-11-23T19:01:30.462Z,100.00
2022-11-23T19:03:57.550Z,100.00
2022-11-23T19:06:24.712Z,100.00
2022-11-23T19:08:57.613Z,100.00
2022-11-23T19:11:25.494Z,100.00
2022-11-23T19:13:53.392Z,100.00
2022-11-23T19:16:23.321Z,100.00
2022-11-23T19:18:57.218Z,100.00
2022-11-23T19:21:28.081Z,100.00
2022-11-23T19:23:55.820Z,100.00
2022-11-23T19:26:22.919Z,100.00
2022-11-23T19:31:32.384Z,100.00
2022-11-23T19:34:01.023Z,100.00
2022-11-23T19:36:29.052Z,100.00
2022-11-23T19:38:56.711Z,100.00
2022-11-23T19:41:29.637Z,100.00
2022-11-23T19:44:00.187Z,100.00
2022-11-23T19:46:27.673Z,100.00
2022-11-23T19:48:54.753Z,100.00
2022-11-23T19:51:23.235Z,100.00
2022-11-23T19:53:50.227Z,100.00
2022-11-23T19:56:19.366Z,100.00
2022-11-23T19:58:47.892Z,100.00
2022-11-23T20:01:18.413Z,100.00
2022-11-23T20:03:49.997Z,100.00
2022-11-23T20:06:25.951Z,100.00
2022-11-23T20:09:03.173Z,100.00
2022-11-23T20:11:30.692Z,100.00
2022-11-23T20:14:00.335Z,100.00
2022-11-23T20:16:27.967Z,100.00
2022-11-23T20:18:57.172Z,100.00
2022-11-23T20:21:24.468Z,100.00
2022-11-23T20:24:04.899Z,100.00
2022-11-23T20:26:33.219Z,100.00
2022-11-23T20:28:59.982Z,99.92
2022-11-23T20:31:27.708Z,99.78
2022-11-23T20:33:55.049Z,100.00
2022-11-23T20:36:23.699Z,100.00
2022-11-23T20:38:51.235Z,100.00
2022-11-23T20:41:20.491Z,100.00
2022-11-23T20:43:48.306Z,99.95
2022-11-23T20:46:45.682Z,100.00
2022-11-23T20:49:07.380Z,99.94
2022-11-23T20:51:37.059Z,100.00
2022-11-23T20:54:03.922Z,99.97
2022-11-23T20:56:41.176Z,99.87
2022-11-23T20:59:08.192Z,99.66
2022-11-23T21:01:35.486Z,99.64
2022-11-23T21:04:02.417Z,99.56
2022-11-23T21:06:35.814Z,99.45
2022-11-23T21:09:05.541Z,99.22
2022-11-23T21:11:54.302Z,99.30
2022-11-23T21:14:24.700Z,99.07
2022-11-23T21:16:56.202Z,98.98
2022-11-23T21:19:29.908Z,99.21
2022-11-23T21:21:57.266Z,98.87
2022-11-23T21:24:24.421Z,98.81
2022-11-23T21:26:54.677Z,98.63
2022-11-23T21:29:21.452Z,98.56
2022-11-23T21:31:48.910Z,98.24
2022-11-23T21:34:17.726Z,98.18
2022-11-23T21:36:44.657Z,98.19
2022-11-23T21:39:11.871Z,98.05
2022-11-23T21:41:51.053Z,98.26
2022-11-23T21:44:18.200Z,98.13
2022-11-23T21:46:45.280Z,98.08
2022-11-23T21:49:13.081Z,97.83
2022-11-23T21:51:42.683Z,97.72
2022-11-23T21:54:16.252Z,97.72
2022-11-23T21:56:46.618Z,97.71
2022-11-23T21:59:13.576Z,97.83
2022-11-23T22:01:40.617Z,97.86
2022-11-23T22:04:11.336Z,97.64
2022-11-23T22:06:39.655Z,97.87
2022-11-23T22:09:07.407Z,97.95
2022-11-23T22:11:37.088Z,97.94
2022-11-23T22:14:08.161Z,97.92
2022-11-23T22:19:17.083Z,98.11
2022-11-23T22:21:49.948Z,98.01
2022-11-23T22:24:18.387Z,98.07
2022-11-23T22:26:45.612Z,97.79
2022-11-23T22:29:12.798Z,97.97
2022-11-23T22:31:40.087Z,97.87
2022-11-23T22:34:08.775Z,97.87
2022-11-23T22:36:35.774Z,97.61
2022-11-23T22:39:03.788Z,97.55
2022-11-23T22:41:33.485Z,97.47
2022-11-23T22:44:05.982Z,97.61
2022-11-23T22:46:32.937Z,97.54
2022-11-23T22:49:00.043Z,97.19
2022-11-23T22:51:27.899Z,97.19
2022-11-23T22:53:55.211Z,96.88
2022-11-23T22:56:22.543Z,96.92
2022-11-23T22:58:49.780Z,96.55
2022-11-23T23:01:17.560Z,96.42
2022-11-23T23:03:44.846Z,96.11
2022-11-23T23:06:15.871Z,95.99
2022-11-23T23:08:42.727Z,95.84
2022-11-23T23:11:09.855Z,95.55
2022-11-23T23:13:37.147Z,95.30
2022-11-23T23:16:07.687Z,95.29
2022-11-23T23:18:34.576Z,95.18
2022-11-23T23:21:05.876Z,95.05
2022-11-23T23:23:33.508Z,94.99
2022-11-23T23:26:00.420Z,94.76
2022-11-23T23:28:27.199Z,94.79
2022-11-23T23:30:58.991Z,94.65
2022-11-23T23:33:25.899Z,94.44
2022-11-23T23:35:52.732Z,94.39
2022-11-23T23:38:22.329Z,94.31
2022-11-23T23:40:49.491Z,94.23
2022-11-23T23:43:16.432Z,94.05
2022-11-23T23:45:43.274Z,94.09
2022-11-23T23:48:10.216Z,93.85
2022-11-23T23:50:37.215Z,93.81
2022-11-23T23:53:05.022Z,93.67
2022-11-23T23:55:31.990Z,93.60
2022-11-23T23:58:01.835Z,93.36
